createdAt,value
2023-01-10T00:01:39.580Z,102746.84
2023-01-10T00:07:01.773Z,102712.22
2023-01-10T00:12:42.360Z,102739.69
2023-01-10T00:18:04.603Z,102724.44
2023-01-10T00:23:27.612Z,102725.94
2023-01-10T00:28:49.914Z,102736.16
2023-01-10T00:34:11.976Z,102720.78
2023-01-10T00:39:33.521Z,102724.94
2023-01-10T00:44:55.524Z,102739.31
2023-01-10T00:50:19.442Z,102737.59
2023-01-10T00:55:41.479Z,102730.88
2023-01-10T01:01:03.418Z,102723.91
2023-01-10T01:06:28.786Z,102711.06
2023-01-10T01:11:51.282Z,102690.59
2023-01-10T01:17:13.904Z,102717.69
2023-01-10T01:22:38.581Z,102711.38
2023-01-10T01:28:00.675Z,102718.28
2023-01-10T01:33:26.181Z,102674.13
2023-01-10T01:38:50.255Z,102690.94
2023-01-10T01:44:19.380Z,102685.59
2023-01-10T01:49:45.540Z,102709.22
2023-01-10T01:55:11.099Z,102731.16
2023-01-10T02:00:36.006Z,102711.88
2023-01-10T02:06:30.426Z,102692.75
2023-01-10T02:12:20.963Z,102728.59
2023-01-10T02:17:43.319Z,102743.09
2023-01-10T02:23:49.810Z,102732.91
2023-01-10T02:29:20.653Z,102747.34
2023-01-10T02:35:04.983Z,102740.53
2023-01-10T02:41:02.746Z,102749.91
2023-01-10T02:46:30.054Z,102732.09
2023-01-10T02:51:51.740Z,102737.13
2023-01-10T02:57:37.862Z,102720.16
2023-01-10T03:03:27.803Z,102721.84
2023-01-10T03:09:29.332Z,102718.47
2023-01-10T03:14:53.372Z,102705.75
2023-01-10T03:20:15.522Z,102701.53
2023-01-10T03:25:40.873Z,102704.94
2023-01-10T03:31:15.349Z,102732.16
2023-01-10T03:36:50.870Z,102734.72
2023-01-10T03:42:26.464Z,102740.63
2023-01-10T03:47:52.616Z,102721.13
2023-01-10T03:53:16.264Z,102694.75
2023-01-10T03:58:38.353Z,102745.72
2023-01-10T04:04:06.919Z,102753.34
2023-01-10T04:09:29.706Z,102725.25
2023-01-10T04:14:52.028Z,102715.09
2023-01-10T04:20:14.404Z,102724.38
2023-01-10T04:25:37.089Z,102724.34
2023-01-10T04:30:59.635Z,102731.94
2023-01-10T04:36:22.582Z,102737.88
2023-01-10T04:41:45.223Z,102707.25
2023-01-10T04:47:07.233Z,102712.38
2023-01-10T04:52:31.062Z,102720.00
2023-01-10T04:57:55.841Z,102746.38
2023-01-10T05:03:20.871Z,102745.59
2023-01-10T05:08:43.643Z,102737.13
2023-01-10T05:14:08.195Z,102760.91
2023-01-10T05:19:30.014Z,102731.19
2023-01-10T05:24:54.547Z,102745.66
2023-01-10T05:30:17.988Z,102762.66
2023-01-10T05:35:45.731Z,102751.59
2023-01-10T05:41:11.700Z,102766.00
2023-01-10T05:46:39.281Z,102761.78
2023-01-10T05:52:01.839Z,102775.34
2023-01-10T05:57:25.176Z,102755.81
2023-01-10T06:02:47.766Z,102762.56
2023-01-10T06:08:09.907Z,102766.03
2023-01-10T06:13:32.200Z,102777.94
2023-01-10T06:18:53.762Z,102779.69
2023-01-10T06:24:15.594Z,102763.59
2023-01-10T06:29:37.820Z,102797.56
2023-01-10T06:35:00.091Z,102792.47
2023-01-10T06:40:22.670Z,102775.50
2023-01-10T06:45:44.801Z,102769.53
2023-01-10T06:51:07.155Z,102801.84
2023-01-10T06:56:29.329Z,102796.75
2023-01-10T07:01:51.446Z,102822.22
2023-01-10T07:07:13.233Z,102807.81
2023-01-10T07:12:35.345Z,102790.81
2023-01-10T07:18:01.283Z,102801.00
2023-01-10T07:23:23.216Z,102803.53
2023-01-10T07:28:46.469Z,102803.50
2023-01-10T07:34:08.701Z,102783.06
2023-01-10T07:39:30.752Z,102799.09
2023-01-10T07:44:53.023Z,102788.81
2023-01-10T07:50:18.032Z,102799.81
2023-01-10T07:55:40.344Z,102796.31
2023-01-10T08:01:04.558Z,102800.50
2023-01-10T08:06:26.662Z,102796.13
2023-01-10T08:11:48.814Z,102797.66
2023-01-10T08:17:10.763Z,102797.59
2023-01-10T08:22:32.904Z,102800.81
2023-01-10T08:27:54.893Z,102789.66
2023-01-10T08:33:16.864Z,102785.13
2023-01-10T08:38:38.520Z,102789.06
2023-01-10T08:44:01.313Z,102768.56
2023-01-10T08:49:23.292Z,102773.53
2023-01-10T08:54:45.562Z,102765.72
2023-01-10T09:00:08.925Z,102741.16
2023-01-10T09:05:31.160Z,102746.97
2023-01-10T09:10:56.235Z,102753.59
2023-01-10T09:16:26.061Z,102721.13
2023-01-10T09:21:48.377Z,102740.41
2023-01-10T09:27:13.064Z,102748.78
2023-01-10T09:32:35.117Z,102714.44
2023-01-10T09:38:01.986Z,102691.81
2023-01-10T09:43:48.624Z,102723.31
2023-01-10T09:49:48.339Z,102721.53
2023-01-10T09:55:24.235Z,102738.59
2023-01-10T10:01:03.406Z,102688.78
2023-01-10T10:06:28.327Z,102704.44
2023-01-10T10:12:04.093Z,102703.06
2023-01-10T10:17:28.589Z,102721.75
2023-01-10T10:23:27.533Z,102728.28
2023-01-10T10:29:07.003Z,102693.19
2023-01-10T10:34:42.624Z,102706.47
2023-01-10T10:40:06.732Z,102714.81
2023-01-10T10:45:35.884Z,102714.59
2023-01-10T10:51:09.495Z,102710.00
2023-01-10T10:56:31.574Z,102705.31
2023-01-10T11:01:54.334Z,102681.53
2023-01-10T11:07:19.142Z,102671.03
2023-01-10T11:12:48.673Z,102680.09
2023-01-10T11:18:23.068Z,102645.00
2023-01-10T11:23:53.130Z,102676.09
2023-01-10T11:29:43.478Z,102681.00
2023-01-10T11:35:18.344Z,102630.59
2023-01-10T11:40:53.753Z,102660.06
2023-01-10T11:46:28.047Z,102647.59
2023-01-10T11:51:53.945Z,102638.34
2023-01-10T11:57:25.956Z,102649.47
2023-01-10T12:02:48.734Z,102666.13
2023-01-10T12:08:26.463Z,102660.91
2023-01-10T12:13:59.644Z,102659.69
2023-01-10T12:19:21.966Z,102659.91
2023-01-10T12:25:08.121Z,102655.31
2023-01-10T12:30:37.560Z,102656.22
2023-01-10T12:36:14.985Z,102642.56
2023-01-10T12:41:58.424Z,102677.31
2023-01-10T12:47:36.048Z,102682.47
2023-01-10T12:53:08.094Z,102685.66
2023-01-10T12:58:40.447Z,102671.03
2023-01-10T13:04:13.466Z,102660.00
2023-01-10T13:09:42.400Z,102645.69
2023-01-10T13:15:39.920Z,102647.94
2023-01-10T13:21:15.565Z,102662.00
2023-01-10T13:26:53.833Z,102669.53
2023-01-10T13:32:31.944Z,102649.19
2023-01-10T13:37:57.772Z,102648.81
2023-01-10T13:43:35.271Z,102653.72
2023-01-10T13:49:00.907Z,102651.84
2023-01-10T13:54:28.893Z,102622.13
2023-01-10T14:00:21.717Z,102647.03
2023-01-10T14:05:49.350Z,102613.00
2023-01-10T14:11:16.893Z,102624.38
2023-01-10T14:16:45.609Z,102614.72
2023-01-10T14:22:09.414Z,102625.78
2023-01-10T14:27:45.637Z,102626.63
2023-01-10T14:33:25.723Z,102605.41
2023-01-10T14:38:50.983Z,102617.84
2023-01-10T14:44:51.093Z,102622.13
2023-01-10T14:50:37.226Z,102615.34
2023-01-10T14:56:05.305Z,102620.34
2023-01-10T15:01:34.025Z,102605.16
2023-01-10T15:07:11.623Z,102577.16
2023-01-10T15:12:37.911Z,102619.31
2023-01-10T15:18:01.636Z,102615.84
2023-01-10T15:23:27.730Z,102584.59
2023-01-10T15:29:13.748Z,102599.47
2023-01-10T15:34:35.703Z,102574.03
2023-01-10T15:39:59.131Z,102589.59
2023-01-10T15:45:38.283Z,102583.69
2023-01-10T15:51:16.446Z,102581.75
2023-01-10T15:56:48.065Z,102568.22
2023-01-10T16:02:14.036Z,102580.13
2023-01-10T16:07:43.062Z,102566.69
2023-01-10T16:13:27.698Z,102571.63
2023-01-10T16:18:50.331Z,102588.84
2023-01-10T16:24:22.999Z,102560.59
2023-01-10T16:29:45.124Z,102566.16
2023-01-10T16:35:08.264Z,102567.84
2023-01-10T16:40:42.779Z,102567.69
2023-01-10T16:46:05.527Z,102565.09
2023-01-10T16:51:30.865Z,102544.63
2023-01-10T16:56:53.033Z,102563.44
2023-01-10T17:02:22.453Z,102551.97
2023-01-10T17:07:44.453Z,102530.63
2023-01-10T17:13:09.404Z,102531.28
2023-01-10T17:18:31.391Z,102525.09
2023-01-10T17:23:53.462Z,102523.28
2023-01-10T17:29:15.700Z,102514.78
2023-01-10T17:34:38.877Z,102537.78
2023-01-10T17:46:11.553Z,102518.13
2023-01-10T17:51:53.397Z,102488.47
2023-01-10T17:57:15.601Z,102519.50
2023-01-10T18:02:38.231Z,102520.38
2023-01-10T18:08:01.924Z,102476.38
2023-01-10T18:13:25.268Z,102512.72
2023-01-10T18:18:52.771Z,102511.97
2023-01-10T18:24:24.053Z,102494.69
2023-01-10T18:29:46.317Z,102483.75
2023-01-10T18:35:09.370Z,102510.91
2023-01-10T18:40:32.894Z,102519.13
2023-01-10T18:46:28.064Z,102471.69
2023-01-10T18:51:53.028Z,102471.66
2023-01-10T18:57:15.859Z,102470.50
2023-01-10T19:02:38.197Z,102491.41
2023-01-10T19:08:03.617Z,102495.44
2023-01-10T19:13:25.523Z,102495.38
2023-01-10T19:18:59.525Z,102510.53
2023-01-10T19:24:23.683Z,102518.28
2023-01-10T19:29:49.112Z,102505.28
2023-01-10T19:35:11.426Z,102505.38
2023-01-10T19:40:34.811Z,102497.31
2023-01-10T19:45:57.307Z,102496.06
2023-01-10T19:51:19.255Z,102492.69
2023-01-10T19:56:41.553Z,102483.91
2023-01-10T20:02:04.975Z,102482.84
2023-01-10T20:07:34.723Z,102475.13
2023-01-10T20:13:05.283Z,102482.13
2023-01-10T20:18:32.552Z,102478.00
2023-01-10T20:24:01.691Z,102480.00
2023-01-10T20:29:24.077Z,102454.59
2023-01-10T20:34:51.601Z,102468.53
2023-01-10T20:40:14.118Z,102467.56
2023-01-10T20:45:37.627Z,102478.19
2023-01-10T20:51:04.972Z,102458.56
2023-01-10T20:56:29.655Z,102478.22
2023-01-10T21:01:55.538Z,102453.69
2023-01-10T21:07:18.256Z,102459.94
2023-01-10T21:12:40.725Z,102448.66
2023-01-10T21:18:02.575Z,102437.13
2023-01-10T21:23:26.247Z,102413.72
2023-01-10T21:28:48.465Z,102438.41
2023-01-10T21:34:10.758Z,102432.91
2023-01-10T21:39:32.848Z,102438.66
2023-01-10T21:44:54.803Z,102442.88
2023-01-10T21:50:19.095Z,102452.00
2023-01-10T21:55:44.493Z,102445.78
2023-01-10T22:01:06.851Z,102416.28
2023-01-10T22:06:29.419Z,102428.63
2023-01-10T22:11:59.883Z,102441.13
2023-01-10T22:17:22.513Z,102410.66
2023-01-10T22:22:47.985Z,102426.56
2023-01-10T22:28:13.875Z,102406.97
2023-01-10T22:33:40.831Z,102411.75
2023-01-10T22:39:07.707Z,102411.75
2023-01-10T22:44:32.165Z,102393.78
2023-01-10T22:49:58.865Z,102403.09
2023-01-10T22:55:22.505Z,102405.22
2023-01-10T23:00:56.850Z,102401.63
2023-01-10T23:06:20.506Z,102414.44
2023-01-10T23:11:42.721Z,102419.78
2023-01-10T23:17:04.625Z,102429.16
2023-01-10T23:22:26.761Z,102425.66
2023-01-10T23:27:48.944Z,102421.53
2023-01-10T23:33:11.240Z,102430.22
2023-01-10T23:38:33.282Z,102409.00
2023-01-10T23:43:55.567Z,102422.31
2023-01-10T23:49:17.623Z,102407.81
2023-01-10T23:54:41.755Z,102413.50
